createdAt,value
2023-03-19T00:00:35.539Z,14.40
2023-03-19T00:03:03.832Z,14.40
2023-03-19T00:05:32.272Z,14.30
2023-03-19T00:08:00.605Z,14.30
2023-03-19T00:10:28.902Z,14.30
2023-03-19T00:12:57.118Z,14.30
2023-03-19T00:15:25.614Z,14.20
2023-03-19T00:17:56.698Z,14.20
2023-03-19T00:20:24.966Z,14.10
2023-03-19T00:22:53.137Z,14.20
2023-03-19T00:25:21.444Z,14.10
2023-03-19T00:27:49.752Z,14.10
2023-03-19T00:30:18.285Z,14.10
2023-03-19T00:32:46.597Z,14.10
2023-03-19T00:35:17.046Z,14.10
2023-03-19T00:37:45.266Z,14.10
2023-03-19T00:40:14.210Z,14.10
2023-03-19T00:42:44.647Z,14.10
2023-03-19T00:45:14.173Z,14.10
2023-03-19T00:47:42.599Z,14.10
2023-03-19T00:50:12.291Z,14.10
2023-03-19T00:52:41.924Z,14.10
2023-03-19T00:55:11.118Z,14.10
2023-03-19T00:57:39.464Z,14.10
2023-03-19T01:00:10.877Z,14.10
2023-03-19T01:02:39.055Z,14.10
2023-03-19T01:05:08.261Z,14.10
2023-03-19T01:07:36.815Z,14.00
2023-03-19T01:10:07.539Z,14.10
2023-03-19T01:12:35.850Z,14.10
2023-03-19T01:15:04.863Z,14.10
2023-03-19T01:17:33.211Z,14.10
2023-03-19T01:20:01.530Z,14.10
2023-03-19T01:22:29.792Z,14.10
2023-03-19T01:24:57.967Z,14.10
2023-03-19T01:27:27.614Z,14.10
2023-03-19T01:29:56.299Z,14.00
2023-03-19T01:32:24.497Z,14.00
2023-03-19T01:34:53.670Z,14.10
2023-03-19T01:37:21.841Z,14.00
2023-03-19T01:39:50.031Z,14.00
2023-03-19T01:42:18.387Z,14.00
2023-03-19T01:44:47.955Z,14.00
2023-03-19T01:47:19.194Z,14.00
2023-03-19T01:49:52.428Z,13.90
2023-03-19T01:52:21.601Z,13.90
2023-03-19T01:54:50.448Z,13.90
2023-03-19T01:57:19.833Z,13.90
2023-03-19T01:59:52.988Z,13.80
2023-03-19T02:02:27.015Z,13.80
2023-03-19T02:04:59.844Z,13.80
2023-03-19T02:07:29.840Z,13.80
2023-03-19T02:09:58.915Z,13.80
2023-03-19T02:12:27.700Z,13.70
2023-03-19T02:14:57.323Z,13.80
2023-03-19T02:17:25.600Z,13.70
2023-03-19T02:20:00.988Z,13.70
2023-03-19T02:22:31.957Z,13.70
2023-03-19T02:25:05.599Z,13.70
2023-03-19T02:27:35.685Z,13.80
2023-03-19T02:30:20.063Z,13.70
2023-03-19T02:32:48.281Z,13.70
2023-03-19T02:35:16.527Z,13.70
2023-03-19T02:37:44.858Z,13.70
2023-03-19T02:40:16.534Z,13.70
2023-03-19T02:42:46.094Z,13.70
2023-03-19T02:45:14.612Z,13.70
2023-03-19T02:47:42.911Z,13.70
2023-03-19T02:50:12.118Z,13.60
2023-03-19T02:52:40.596Z,13.60
2023-03-19T02:55:09.576Z,13.60
2023-03-19T02:57:37.743Z,13.60
2023-03-19T03:00:10.852Z,13.70
2023-03-19T03:02:39.304Z,14.00
2023-03-19T03:05:09.266Z,14.30
2023-03-19T03:07:37.687Z,14.60
2023-03-19T03:10:06.354Z,14.90
2023-03-19T03:12:34.579Z,15.20
2023-03-19T03:15:02.753Z,15.40
2023-03-19T03:17:32.288Z,15.50
2023-03-19T03:20:00.437Z,15.50
2023-03-19T03:22:28.732Z,15.40
2023-03-19T03:24:57.029Z,15.30
2023-03-19T03:27:25.189Z,15.20
2023-03-19T03:29:53.392Z,15.10
2023-03-19T03:32:21.658Z,14.90
2023-03-19T03:34:51.702Z,14.90
2023-03-19T03:37:19.906Z,14.70
2023-03-19T03:39:48.294Z,14.60
2023-03-19T03:42:16.500Z,14.50
2023-03-19T03:44:44.646Z,14.40
2023-03-19T03:47:13.648Z,14.40
2023-03-19T03:49:41.958Z,14.30
2023-03-19T03:52:12.223Z,14.20
2023-03-19T03:54:41.455Z,14.20
2023-03-19T03:57:09.854Z,14.10
2023-03-19T03:59:38.132Z,14.10
2023-03-19T04:02:06.758Z,14.00
2023-03-19T04:04:35.043Z,14.00
2023-03-19T04:07:03.215Z,14.00
2023-03-19T04:09:33.133Z,13.90
2023-03-19T04:12:01.528Z,13.90
2023-03-19T04:14:29.832Z,13.80
2023-03-19T04:16:58.042Z,13.80
2023-03-19T04:19:27.253Z,13.80
2023-03-19T04:21:55.461Z,13.70
2023-03-19T04:24:23.630Z,13.80
2023-03-19T04:26:53.465Z,13.70
2023-03-19T04:29:22.667Z,13.70
2023-03-19T04:31:52.486Z,13.70
2023-03-19T04:34:20.988Z,13.70
2023-03-19T04:36:49.984Z,13.70
2023-03-19T04:39:18.230Z,13.70
2023-03-19T04:41:46.441Z,13.70
2023-03-19T04:44:16.011Z,13.70
2023-03-19T04:46:45.327Z,13.70
2023-03-19T04:49:13.804Z,13.70
2023-03-19T04:51:42.152Z,13.70
2023-03-19T04:54:11.079Z,13.70
2023-03-19T04:56:39.474Z,13.70
2023-03-19T04:59:07.796Z,13.70
2023-03-19T05:01:38.075Z,13.70
2023-03-19T05:04:07.292Z,13.70
2023-03-19T05:06:35.531Z,13.70
2023-03-19T05:09:03.964Z,13.70
2023-03-19T05:11:32.152Z,13.60
2023-03-19T05:14:00.296Z,13.60
2023-03-19T05:16:28.499Z,13.60
2023-03-19T05:18:58.153Z,13.60
2023-03-19T05:21:26.818Z,13.60
2023-03-19T05:23:57.293Z,13.60
2023-03-19T05:26:25.759Z,13.60
2023-03-19T05:28:53.965Z,13.60
2023-03-19T05:31:22.180Z,13.60
2023-03-19T05:33:50.664Z,13.60
2023-03-19T05:36:20.195Z,13.60
2023-03-19T05:38:49.504Z,13.60
2023-03-19T05:41:17.986Z,13.60
2023-03-19T05:43:46.126Z,13.50
2023-03-19T05:46:14.459Z,13.50
2023-03-19T05:48:42.635Z,13.50
2023-03-19T05:51:11.674Z,13.50
2023-03-19T05:53:41.210Z,13.50
2023-03-19T05:56:09.647Z,13.40
2023-03-19T05:58:37.792Z,13.40
2023-03-19T06:01:06.182Z,13.50
2023-03-19T06:03:34.375Z,13.40
2023-03-19T06:06:02.623Z,13.40
2023-03-19T06:08:30.807Z,13.40
2023-03-19T06:11:00.366Z,13.40
2023-03-19T06:13:28.504Z,13.30
2023-03-19T06:15:56.792Z,13.30
2023-03-19T06:18:25.132Z,13.30
2023-03-19T06:20:53.282Z,13.30
2023-03-19T06:23:21.724Z,13.30
2023-03-19T06:25:49.922Z,13.30
2023-03-19T06:28:19.544Z,13.30
2023-03-19T06:30:47.759Z,13.30
2023-03-19T06:33:16.163Z,13.30
2023-03-19T06:35:44.358Z,13.30
2023-03-19T06:38:12.550Z,13.30
2023-03-19T06:40:40.767Z,13.30
2023-03-19T06:43:09.532Z,13.30
2023-03-19T06:45:39.174Z,13.30
2023-03-19T06:48:07.739Z,13.30
2023-03-19T06:50:36.092Z,13.30
2023-03-19T06:53:04.348Z,13.30
2023-03-19T06:55:32.544Z,13.30
2023-03-19T06:58:00.691Z,13.30
2023-03-19T07:00:29.064Z,13.30
2023-03-19T07:02:58.622Z,13.30
2023-03-19T07:05:26.905Z,13.30
2023-03-19T07:07:55.059Z,13.40
2023-03-19T07:10:23.588Z,13.40
2023-03-19T07:12:51.773Z,13.40
2023-03-19T07:15:21.477Z,13.40
2023-03-19T07:17:49.859Z,13.40
2023-03-19T07:20:19.880Z,13.50
2023-03-19T07:22:48.107Z,13.50
2023-03-19T07:25:16.631Z,13.50
2023-03-19T07:27:45.469Z,13.60
2023-03-19T07:30:15.537Z,13.60
2023-03-19T07:32:44.002Z,13.60
2023-03-19T07:35:14.244Z,13.60
2023-03-19T07:37:43.858Z,13.60
2023-03-19T07:40:12.853Z,13.60
2023-03-19T07:42:42.313Z,13.70
2023-03-19T07:45:12.174Z,13.70
2023-03-19T07:47:40.848Z,13.70
2023-03-19T07:50:09.866Z,13.70
2023-03-19T07:52:38.066Z,13.70
2023-03-19T07:55:08.510Z,13.70
2023-03-19T07:57:36.639Z,13.70
2023-03-19T08:00:05.335Z,13.70
2023-03-19T08:02:33.568Z,13.70
2023-03-19T08:05:04.755Z,13.70
2023-03-19T08:07:33.008Z,13.80
2023-03-19T08:10:01.144Z,13.80
2023-03-19T08:12:31.869Z,13.80
2023-03-19T08:15:00.120Z,13.80
2023-03-19T08:17:28.596Z,13.80
2023-03-19T08:19:56.760Z,13.80
2023-03-19T08:22:24.960Z,13.90
2023-03-19T08:24:53.098Z,13.90
2023-03-19T08:27:21.420Z,13.90
2023-03-19T08:29:51.012Z,14.00
2023-03-19T08:32:19.269Z,14.00
2023-03-19T08:34:49.696Z,14.00
2023-03-19T08:37:18.024Z,14.10
2023-03-19T08:39:46.619Z,14.10
2023-03-19T08:42:15.061Z,14.10
2023-03-19T08:44:43.244Z,14.20
2023-03-19T08:47:13.274Z,14.20
2023-03-19T08:49:41.532Z,14.20
2023-03-19T08:52:10.283Z,14.20
2023-03-19T08:54:38.491Z,14.30
2023-03-19T08:57:06.774Z,14.30
2023-03-19T08:59:34.929Z,14.30
2023-03-19T09:02:03.529Z,14.40
2023-03-19T09:04:36.713Z,14.40
2023-03-19T09:07:04.961Z,14.40
2023-03-19T09:09:33.116Z,14.50
2023-03-19T09:12:01.263Z,14.50
2023-03-19T09:14:29.401Z,14.60
2023-03-19T09:16:57.548Z,14.60
2023-03-19T09:19:26.109Z,14.70
2023-03-19T09:21:55.976Z,14.70
2023-03-19T09:24:24.227Z,14.70
2023-03-19T09:26:52.380Z,14.80
2023-03-19T09:29:20.951Z,14.90
2023-03-19T09:31:49.209Z,15.00
2023-03-19T09:34:17.423Z,15.00
2023-03-19T09:36:45.783Z,15.00
2023-03-19T09:39:15.386Z,15.20
2023-03-19T09:41:53.706Z,15.20
2023-03-19T09:44:28.055Z,15.30
2023-03-19T09:47:01.369Z,15.40
2023-03-19T09:49:32.738Z,15.40
2023-03-19T09:52:14.073Z,15.50
2023-03-19T09:54:48.377Z,15.50
2023-03-19T09:57:17.527Z,15.60
2023-03-19T09:59:47.086Z,15.60
2023-03-19T10:02:34.863Z,15.60
2023-03-19T10:05:14.338Z,15.60
2023-03-19T10:07:56.955Z,15.60
2023-03-19T10:10:48.504Z,15.70
2023-03-19T10:13:27.465Z,15.60
2023-03-19T10:15:56.795Z,15.60
2023-03-19T10:18:29.519Z,15.60
2023-03-19T10:21:01.767Z,15.60
2023-03-19T10:23:42.804Z,15.60
2023-03-19T10:26:17.686Z,15.60
2023-03-19T10:28:51.832Z,15.60
2023-03-19T10:31:27.958Z,15.60
2023-03-19T10:34:11.380Z,15.60
2023-03-19T10:36:40.252Z,15.70
2023-03-19T10:39:08.635Z,15.70
2023-03-19T10:41:48.428Z,15.70
2023-03-19T10:44:29.248Z,15.80
2023-03-19T10:47:00.131Z,15.90
2023-03-19T10:49:29.343Z,16.00
2023-03-19T10:51:59.638Z,16.10
2023-03-19T10:54:30.468Z,16.20
2023-03-19T10:57:01.980Z,16.30
2023-03-19T10:59:38.322Z,16.40
2023-03-19T11:02:19.362Z,16.50
2023-03-19T11:04:47.810Z,16.60
2023-03-19T11:07:20.603Z,16.70
2023-03-19T11:09:50.710Z,16.80
2023-03-19T11:12:23.030Z,16.90
2023-03-19T11:14:53.442Z,17.00
2023-03-19T11:17:27.171Z,17.00
2023-03-19T11:19:57.598Z,17.10
2023-03-19T11:22:28.449Z,17.20
2023-03-19T11:25:01.842Z,17.30
2023-03-19T11:27:34.765Z,17.30
2023-03-19T11:30:04.039Z,17.40
2023-03-19T11:32:44.251Z,17.50
2023-03-19T11:35:16.613Z,17.50
2023-03-19T11:37:55.818Z,17.50
2023-03-19T11:40:37.392Z,17.60
2023-03-19T11:43:29.636Z,17.60
2023-03-19T11:46:05.155Z,17.70
2023-03-19T11:48:47.796Z,17.70
2023-03-19T11:51:23.999Z,17.80
2023-03-19T11:54:03.786Z,17.80
2023-03-19T11:56:40.083Z,17.80
2023-03-19T11:59:30.369Z,17.90
2023-03-19T12:02:43.901Z,17.80
2023-03-19T12:05:29.491Z,17.90
2023-03-19T12:08:26.676Z,17.80
2023-03-19T12:11:04.868Z,17.80
2023-03-19T12:13:46.929Z,17.70
2023-03-19T12:16:19.979Z,17.70
2023-03-19T12:19:16.926Z,17.60
2023-03-19T12:21:56.151Z,17.50
2023-03-19T12:24:32.990Z,17.40
2023-03-19T12:27:09.303Z,17.20
2023-03-19T12:29:48.735Z,17.20
2023-03-19T12:32:30.039Z,17.00
2023-03-19T12:35:02.398Z,16.90
2023-03-19T12:37:35.644Z,16.90
2023-03-19T12:40:15.594Z,16.80
2023-03-19T12:42:44.222Z,16.70
2023-03-19T12:45:26.448Z,16.70
2023-03-19T12:48:01.729Z,16.50
2023-03-19T12:50:33.158Z,16.50
2023-03-19T12:53:02.823Z,16.50
2023-03-19T12:55:38.556Z,16.40
2023-03-19T12:58:15.502Z,16.30
2023-03-19T13:00:51.663Z,16.30
2023-03-19T13:03:27.060Z,16.30
2023-03-19T13:06:04.392Z,16.30
2023-03-19T13:08:36.460Z,16.30
2023-03-19T13:11:09.957Z,16.40
2023-03-19T13:13:43.719Z,16.40
2023-03-19T13:16:23.030Z,16.40
2023-03-19T13:18:59.643Z,16.50
2023-03-19T13:21:32.350Z,16.50
2023-03-19T13:24:09.688Z,16.50
2023-03-19T13:26:38.766Z,16.60
2023-03-19T13:29:17.243Z,16.60
2023-03-19T13:31:46.352Z,16.60
2023-03-19T13:34:26.475Z,16.70
2023-03-19T13:37:02.380Z,16.70
2023-03-19T13:39:33.633Z,16.80
2023-03-19T13:42:38.874Z,16.80
2023-03-19T13:45:30.910Z,16.80
2023-03-19T13:48:01.138Z,16.90
2023-03-19T13:50:51.312Z,16.90
2023-03-19T13:53:34.589Z,16.90
2023-03-19T13:56:12.806Z,16.90
2023-03-19T13:58:54.061Z,16.90
2023-03-19T14:01:39.893Z,16.90
2023-03-19T14:04:20.894Z,16.90
2023-03-19T14:06:53.642Z,16.90
2023-03-19T14:09:37.805Z,16.90
2023-03-19T14:12:26.521Z,16.90
2023-03-19T14:14:58.678Z,16.90
2023-03-19T14:17:31.758Z,16.80
2023-03-19T14:20:09.230Z,16.80
2023-03-19T14:22:40.805Z,16.70
2023-03-19T14:25:18.122Z,16.60
2023-03-19T14:27:48.786Z,16.50
2023-03-19T14:30:37.794Z,16.50
2023-03-19T14:33:09.856Z,16.40
2023-03-19T14:35:40.783Z,16.40
2023-03-19T14:38:17.136Z,16.40
2023-03-19T14:40:48.444Z,16.30
2023-03-19T14:43:28.494Z,16.30
2023-03-19T14:46:01.457Z,16.20
2023-03-19T14:49:08.484Z,16.20
2023-03-19T14:52:02.951Z,16.20
2023-03-19T14:54:39.212Z,16.10
2023-03-19T14:57:09.258Z,16.10
2023-03-19T14:59:41.180Z,16.10
2023-03-19T15:02:20.930Z,16.10
2023-03-19T15:04:50.509Z,16.10
2023-03-19T15:07:22.559Z,16.10
2023-03-19T15:09:56.330Z,16.10
2023-03-19T15:12:52.044Z,16.10
2023-03-19T15:15:36.038Z,16.10
2023-03-19T15:18:08.799Z,16.10
2023-03-19T15:20:40.040Z,16.00
2023-03-19T15:23:23.399Z,16.00
2023-03-19T15:25:57.937Z,16.00
2023-03-19T15:28:28.257Z,16.00
2023-03-19T15:31:05.728Z,16.00
2023-03-19T15:33:45.604Z,15.90
2023-03-19T15:36:19.050Z,15.90
2023-03-19T15:38:51.102Z,15.90
2023-03-19T15:41:22.097Z,16.00
2023-03-19T15:43:50.552Z,16.00
2023-03-19T15:46:24.237Z,16.00
2023-03-19T15:48:58.078Z,16.00
2023-03-19T15:51:28.134Z,16.00
2023-03-19T15:53:57.040Z,16.00
2023-03-19T15:56:26.857Z,16.00
2023-03-19T15:58:58.386Z,16.00
2023-03-19T16:01:28.477Z,16.00
2023-03-19T16:04:00.730Z,16.00
2023-03-19T16:06:31.674Z,16.00
2023-03-19T16:09:16.020Z,16.00
2023-03-19T16:11:46.980Z,16.00
2023-03-19T16:14:25.029Z,16.00
2023-03-19T16:16:54.097Z,16.00
2023-03-19T16:19:33.981Z,16.00
2023-03-19T16:22:03.868Z,16.00
2023-03-19T16:24:37.599Z,16.00
2023-03-19T16:27:12.807Z,16.00
2023-03-19T16:29:43.392Z,16.00
2023-03-19T16:32:21.115Z,16.00
2023-03-19T16:34:52.613Z,16.00
2023-03-19T16:37:33.766Z,16.00
2023-03-19T16:40:03.570Z,16.00
2023-03-19T16:42:43.083Z,16.00
2023-03-19T16:45:21.206Z,16.00
2023-03-19T16:47:51.391Z,16.00
2023-03-19T16:50:21.342Z,16.00
2023-03-19T16:52:50.667Z,16.00
2023-03-19T16:55:22.964Z,16.00
2023-03-19T16:57:57.821Z,16.00
2023-03-19T17:00:27.195Z,16.00
2023-03-19T17:02:57.031Z,16.00
2023-03-19T17:05:26.451Z,15.90
2023-03-19T17:07:55.647Z,15.90
2023-03-19T17:10:26.354Z,15.90
2023-03-19T17:12:57.360Z,15.80
2023-03-19T17:15:28.359Z,15.80
2023-03-19T17:17:57.316Z,15.80
2023-03-19T17:20:29.160Z,15.80
2023-03-19T17:22:57.332Z,15.70
2023-03-19T17:25:26.225Z,15.70
2023-03-19T17:27:55.750Z,15.60
2023-03-19T17:30:23.985Z,15.50
2023-03-19T17:32:52.525Z,15.60
2023-03-19T17:35:22.623Z,15.50
2023-03-19T17:37:51.498Z,15.50
2023-03-19T17:40:20.851Z,15.40
2023-03-19T17:42:49.647Z,15.40
2023-03-19T17:45:22.292Z,15.30
2023-03-19T17:47:53.709Z,15.30
2023-03-19T17:50:24.507Z,15.30
2023-03-19T17:52:53.257Z,15.30
2023-03-19T17:55:23.281Z,15.20
2023-03-19T17:57:52.212Z,15.20
2023-03-19T18:00:24.031Z,15.20
2023-03-19T18:02:54.524Z,15.10
2023-03-19T18:05:25.225Z,15.10
2023-03-19T18:07:56.383Z,15.00
2023-03-19T18:10:27.522Z,15.00
2023-03-19T18:12:55.814Z,15.00
2023-03-19T18:15:25.411Z,15.00
2023-03-19T18:17:56.575Z,14.90
2023-03-19T18:20:28.142Z,14.90
2023-03-19T18:22:56.317Z,14.90
2023-03-19T18:25:26.314Z,14.80
2023-03-19T18:27:55.026Z,14.80
2023-03-19T18:30:25.903Z,14.80
2023-03-19T18:32:58.173Z,14.80
2023-03-19T18:35:29.622Z,14.70
2023-03-19T18:37:58.435Z,14.70
2023-03-19T18:40:29.203Z,14.70
2023-03-19T18:42:57.503Z,14.70
2023-03-19T18:45:30.024Z,14.60
2023-03-19T18:47:58.237Z,14.60
2023-03-19T18:50:29.189Z,14.50
2023-03-19T18:52:58.324Z,14.60
2023-03-19T18:55:30.251Z,14.50
2023-03-19T18:58:00.314Z,14.50
2023-03-19T19:00:32.709Z,14.50
2023-03-19T19:03:02.350Z,14.40
2023-03-19T19:05:32.458Z,14.40
2023-03-19T19:08:02.367Z,14.30
2023-03-19T19:10:34.335Z,14.30
2023-03-19T19:13:03.350Z,14.30
2023-03-19T19:15:36.063Z,14.20
2023-03-19T19:18:14.202Z,14.20
2023-03-19T19:20:42.355Z,14.20
2023-03-19T19:23:11.141Z,14.20
2023-03-19T19:25:39.619Z,14.20
2023-03-19T19:28:15.637Z,14.20
2023-03-19T19:30:45.786Z,14.10
2023-03-19T19:33:18.467Z,14.10
2023-03-19T19:35:47.002Z,14.20
2023-03-19T19:38:15.493Z,14.10
2023-03-19T19:40:45.775Z,14.10
2023-03-19T19:43:18.293Z,14.10
2023-03-19T19:45:49.968Z,14.00
2023-03-19T19:48:19.967Z,14.10
2023-03-19T19:50:50.693Z,14.00
2023-03-19T19:53:19.696Z,14.00
2023-03-19T19:55:48.139Z,14.00
2023-03-19T19:58:19.979Z,14.00
2023-03-19T20:01:02.360Z,14.00
2023-03-19T20:03:33.755Z,14.00
2023-03-19T20:06:02.739Z,14.00
2023-03-19T20:08:31.225Z,14.00
2023-03-19T20:10:59.652Z,14.00
2023-03-19T20:13:30.110Z,14.00
2023-03-19T20:16:00.787Z,14.00
2023-03-19T20:18:31.033Z,14.00
2023-03-19T20:21:00.417Z,14.00
2023-03-19T20:23:28.575Z,14.00
2023-03-19T20:25:58.252Z,14.00
2023-03-19T20:28:30.569Z,14.00
2023-03-19T20:31:01.605Z,14.00
2023-03-19T20:33:31.251Z,14.00
2023-03-19T20:35:59.632Z,14.00
2023-03-19T20:38:29.137Z,14.00
2023-03-19T20:40:58.929Z,14.00
2023-03-19T20:43:30.180Z,14.00
2023-03-19T20:46:01.949Z,14.00
2023-03-19T20:48:30.711Z,14.00
2023-03-19T20:51:01.477Z,14.00
2023-03-19T20:53:30.005Z,14.10
2023-03-19T20:56:00.110Z,14.00
2023-03-19T20:58:31.361Z,14.00
2023-03-19T21:01:01.233Z,14.10
2023-03-19T21:03:31.713Z,14.00
2023-03-19T21:06:02.254Z,14.10
2023-03-19T21:08:34.399Z,14.10
2023-03-19T21:11:02.857Z,14.10
2023-03-19T21:13:31.941Z,14.10
2023-03-19T21:16:01.996Z,14.10
2023-03-19T21:18:30.311Z,14.10
2023-03-19T21:20:59.816Z,14.10
2023-03-19T21:23:31.611Z,14.00
2023-03-19T21:26:00.343Z,14.00
2023-03-19T21:28:32.503Z,14.10
2023-03-19T21:31:02.467Z,14.00
2023-03-19T21:33:32.843Z,14.00
2023-03-19T21:36:02.505Z,14.00
2023-03-19T21:38:33.052Z,14.00
2023-03-19T21:41:03.009Z,14.00
2023-03-19T21:43:34.476Z,14.00
2023-03-19T21:46:22.939Z,14.00
2023-03-19T21:48:52.547Z,14.00
2023-03-19T21:51:20.951Z,13.90
2023-03-19T21:53:49.459Z,14.00
2023-03-19T21:56:22.812Z,13.90
2023-03-19T21:58:52.679Z,13.90
2023-03-19T22:01:24.751Z,13.90
2023-03-19T22:03:53.569Z,13.90
2023-03-19T22:06:22.159Z,13.90
2023-03-19T22:08:51.157Z,13.90
2023-03-19T22:11:24.028Z,13.90
2023-03-19T22:13:52.425Z,13.90
2023-03-19T22:16:24.719Z,13.90
2023-03-19T22:18:53.723Z,13.90
2023-03-19T22:21:23.668Z,13.90
2023-03-19T22:23:52.559Z,13.90
2023-03-19T22:26:29.790Z,13.90
2023-03-19T22:28:59.742Z,13.90
2023-03-19T22:31:29.898Z,13.80
2023-03-19T22:33:58.238Z,13.80
2023-03-19T22:36:26.397Z,13.90
2023-03-19T22:38:54.537Z,13.90
2023-03-19T22:41:28.619Z,13.90
2023-03-19T22:43:58.893Z,13.90
2023-03-19T22:46:28.974Z,13.80
2023-03-19T22:48:57.306Z,13.90
2023-03-19T22:51:28.319Z,13.90
2023-03-19T22:53:56.570Z,13.80
2023-03-19T22:56:24.727Z,13.80
2023-03-19T22:58:53.029Z,13.80
2023-03-19T23:01:36.387Z,13.80
2023-03-19T23:04:18.521Z,13.80
2023-03-19T23:06:46.511Z,13.80
2023-03-19T23:09:17.712Z,13.70
2023-03-19T23:11:45.932Z,13.70
2023-03-19T23:14:28.103Z,13.70
2023-03-19T23:17:00.859Z,13.60
2023-03-19T23:19:31.451Z,13.60
2023-03-19T23:22:00.307Z,13.60
2023-03-19T23:24:30.530Z,13.60
2023-03-19T23:27:00.388Z,13.60
2023-03-19T23:29:31.678Z,13.60
2023-03-19T23:32:01.731Z,13.60
2023-03-19T23:34:30.402Z,13.50
2023-03-19T23:36:59.994Z,13.60
2023-03-19T23:39:28.911Z,13.60
2023-03-19T23:41:59.202Z,13.60
2023-03-19T23:44:29.116Z,13.60
2023-03-19T23:47:02.833Z,13.60
2023-03-19T23:49:33.333Z,13.60
2023-03-19T23:52:03.547Z,13.50
2023-03-19T23:54:33.360Z,13.50
2023-03-19T23:57:05.125Z,13.50
2023-03-19T23:59:36.230Z,13.50
